createdAt,value
2019-03-21T00:00:52.705Z,102441.48
2019-03-21T00:03:40.369Z,102446.44
2019-03-21T00:06:48.681Z,102446.90
2019-03-21T00:09:57.003Z,102446.48
2019-03-21T00:12:44.529Z,102449.12
2019-03-21T00:15:52.851Z,102450.75
2019-03-21T00:18:40.370Z,102450.06
2019-03-21T00:21:08.788Z,102439.47
2019-03-21T00:23:37.192Z,102439.54
2019-03-21T00:26:05.610Z,102443.56
2019-03-21T00:28:34.017Z,102436.21
2019-03-21T00:31:02.501Z,102431.72
2019-03-21T00:33:30.906Z,102429.59
2019-03-21T00:35:59.325Z,102426.64
2019-03-21T00:38:27.729Z,102432.74
2019-03-21T00:40:56.139Z,102435.13
2019-03-21T00:43:24.542Z,102437.96
2019-03-21T00:45:52.962Z,102435.15
2019-03-21T00:48:21.837Z,102435.83
2019-03-21T00:50:50.303Z,102437.45
2019-03-21T00:53:18.716Z,102436.13
2019-03-21T00:55:50.175Z,102438.72
2019-03-21T00:58:18.580Z,102435.86
2019-03-21T01:00:49.968Z,102431.45
2019-03-21T01:03:18.375Z,102424.92
2019-03-21T01:05:46.785Z,102430.13
2019-03-21T01:08:15.664Z,102426.07
2019-03-21T01:10:44.093Z,102428.56
2019-03-21T01:13:12.570Z,102418.90
2019-03-21T01:15:40.987Z,102414.88
2019-03-21T01:18:09.391Z,102415.47
2019-03-21T01:20:37.806Z,102416.80
2019-03-21T01:23:06.205Z,102411.98
2019-03-21T01:25:46.630Z,102408.55
2019-03-21T01:28:15.041Z,102410.36
2019-03-21T01:30:43.453Z,102410.87
2019-03-21T01:33:11.868Z,102409.22
2019-03-21T01:35:41.291Z,102405.98
2019-03-21T01:38:09.698Z,102402.22
2019-03-21T01:40:56.108Z,102397.39
2019-03-21T01:43:24.517Z,102405.45
2019-03-21T01:45:52.931Z,102402.80
2019-03-21T01:48:21.328Z,102397.88
2019-03-21T01:50:50.063Z,102393.75
2019-03-21T01:53:18.461Z,102395.36
2019-03-21T01:55:46.872Z,102392.89
2019-03-21T01:58:15.283Z,102395.05
2019-03-21T02:00:45.975Z,102389.19
2019-03-21T02:03:14.378Z,102388.85
2019-03-21T02:05:42.787Z,102388.69
2019-03-21T02:08:11.310Z,102392.63
2019-03-21T02:10:39.733Z,102381.52
2019-03-21T02:13:08.140Z,102391.73
2019-03-21T02:15:36.545Z,102386.14
2019-03-21T02:18:05.425Z,102381.27
2019-03-21T02:20:33.832Z,102383.36
2019-03-21T02:23:02.322Z,102385.58
2019-03-21T02:25:32.363Z,102374.12
2019-03-21T02:28:00.779Z,102372.22
2019-03-21T02:30:38.176Z,102375.48
2019-03-21T02:33:13.088Z,102371.34
2019-03-21T02:35:41.496Z,102371.98
2019-03-21T02:38:09.912Z,102368.95
2019-03-21T02:40:38.320Z,102374.56
2019-03-21T02:43:06.738Z,102371.73
2019-03-21T02:45:35.205Z,102369.34
2019-03-21T02:48:03.619Z,102372.89
2019-03-21T02:50:37.428Z,102369.45
2019-03-21T02:53:07.517Z,102373.25
2019-03-21T02:55:36.011Z,102374.69
2019-03-21T02:58:04.994Z,102379.13
2019-03-21T03:00:39.888Z,102379.94
2019-03-21T03:03:08.748Z,102380.77
2019-03-21T03:05:37.888Z,102382.12
2019-03-21T03:08:07.243Z,102385.42
2019-03-21T03:10:50.265Z,102384.59
2019-03-21T03:13:18.994Z,102388.14
2019-03-21T03:15:47.419Z,102382.64
2019-03-21T03:18:22.593Z,102379.63
2019-03-21T03:20:51.000Z,102388.61
2019-03-21T03:23:19.506Z,102389.73
2019-03-21T03:25:50.763Z,102386.25
2019-03-21T03:28:27.345Z,102382.61
2019-03-21T03:30:57.501Z,102387.58
2019-03-21T03:33:26.089Z,102387.31
2019-03-21T03:35:54.564Z,102391.78
2019-03-21T03:38:22.989Z,102389.66
2019-03-21T03:41:02.561Z,102384.84
2019-03-21T03:43:30.968Z,102384.12
2019-03-21T03:45:59.438Z,102383.70
2019-03-21T03:48:28.688Z,102378.42
2019-03-21T03:50:57.104Z,102377.03
2019-03-21T03:53:25.546Z,102381.39
2019-03-21T03:55:53.977Z,102383.66
2019-03-21T03:58:33.828Z,102380.07
2019-03-21T04:01:02.232Z,102382.50
2019-03-21T04:03:30.643Z,102386.56
2019-03-21T04:05:59.059Z,102384.61
2019-03-21T04:08:27.535Z,102390.72
2019-03-21T04:10:57.994Z,102387.55
2019-03-21T04:13:26.513Z,102386.30
2019-03-21T04:15:54.919Z,102385.13
2019-03-21T04:18:25.367Z,102393.42
2019-03-21T04:21:02.892Z,102398.15
2019-03-21T04:23:31.374Z,102396.41
2019-03-21T04:26:05.588Z,102398.92
2019-03-21T04:28:34.175Z,102398.04
2019-03-21T04:31:02.582Z,102394.12
2019-03-21T04:33:31.171Z,102398.06
2019-03-21T04:35:59.581Z,102397.16
2019-03-21T04:38:28.010Z,102393.28
2019-03-21T04:40:56.415Z,102394.51
2019-03-21T04:43:24.834Z,102391.05
2019-03-21T04:46:02.936Z,102397.88
2019-03-21T04:48:23.375Z,102393.59
2019-03-21T04:50:51.778Z,102395.39
2019-03-21T04:53:20.196Z,102387.83
2019-03-21T04:55:48.601Z,102390.43
2019-03-21T04:58:17.015Z,102396.89
2019-03-21T05:00:57.121Z,102396.72
2019-03-21T05:03:27.682Z,102389.42
2019-03-21T05:05:56.087Z,102392.84
2019-03-21T05:08:24.504Z,102395.41
2019-03-21T05:10:52.909Z,102394.09
2019-03-21T05:13:21.322Z,102400.69
2019-03-21T05:15:51.470Z,102396.74
2019-03-21T05:18:31.791Z,102395.75
2019-03-21T05:21:01.668Z,102395.55
2019-03-21T05:23:30.194Z,102402.36
2019-03-21T05:25:58.617Z,102399.99
2019-03-21T05:28:27.076Z,102402.22
2019-03-21T05:30:58.453Z,102399.50
2019-03-21T05:33:26.985Z,102399.39
2019-03-21T05:35:55.455Z,102405.23
2019-03-21T05:38:26.770Z,102401.36
2019-03-21T05:40:55.185Z,102405.75
2019-03-21T05:43:38.591Z,102400.48
2019-03-21T05:46:07.020Z,102401.59
2019-03-21T05:48:35.472Z,102407.52
2019-03-21T05:51:03.920Z,102404.42
2019-03-21T05:53:32.482Z,102413.13
2019-03-21T05:56:00.895Z,102412.92
2019-03-21T05:58:29.337Z,102415.07
2019-03-21T06:01:11.731Z,102414.48
2019-03-21T06:03:50.629Z,102411.05
2019-03-21T06:06:31.002Z,102413.20
2019-03-21T06:08:59.536Z,102407.13
2019-03-21T06:11:28.615Z,102412.27
2019-03-21T06:13:57.057Z,102407.77
2019-03-21T06:16:25.503Z,102418.75
2019-03-21T06:19:11.859Z,102414.19
2019-03-21T06:21:52.240Z,102419.56
2019-03-21T06:24:26.360Z,102416.02
2019-03-21T06:27:14.698Z,102418.41
2019-03-21T06:29:43.072Z,102420.55
2019-03-21T06:32:13.019Z,102419.66
2019-03-21T06:34:41.640Z,102414.31
2019-03-21T06:37:10.104Z,102414.73
2019-03-21T06:39:38.570Z,102414.73
2019-03-21T06:42:06.990Z,102418.13
2019-03-21T06:44:35.433Z,102419.98
2019-03-21T06:47:03.882Z,102417.95
2019-03-21T06:49:32.328Z,102428.02
2019-03-21T06:52:00.773Z,102430.11
2019-03-21T06:54:29.210Z,102436.35
2019-03-21T06:56:57.654Z,102433.70
2019-03-21T06:59:26.145Z,102435.84
2019-03-21T07:01:54.605Z,102434.17
2019-03-21T07:04:23.058Z,102431.95
2019-03-21T07:06:51.544Z,102434.72
2019-03-21T07:09:20.070Z,102431.99
2019-03-21T07:11:48.528Z,102434.13
2019-03-21T07:14:16.974Z,102443.02
2019-03-21T07:16:45.412Z,102442.16
2019-03-21T07:19:13.864Z,102442.88
2019-03-21T07:21:42.306Z,102443.56
2019-03-21T07:24:10.750Z,102447.66
2019-03-21T07:26:39.177Z,102451.61
2019-03-21T07:29:07.684Z,102451.55
2019-03-21T07:31:36.146Z,102454.63
2019-03-21T07:34:04.704Z,102450.13
2019-03-21T07:36:33.180Z,102454.68
2019-03-21T07:39:01.645Z,102457.55
2019-03-21T07:41:30.082Z,102451.45
2019-03-21T07:43:58.498Z,102455.77
2019-03-21T07:46:26.903Z,102459.33
2019-03-21T07:52:07.771Z,102453.70
2019-03-21T07:54:36.188Z,102450.78
2019-03-21T07:57:23.713Z,102455.66
2019-03-21T07:59:52.123Z,102456.97
2019-03-21T08:05:51.653Z,102460.00
2019-03-21T08:08:20.066Z,102461.02
2019-03-21T08:13:22.811Z,102468.48
2019-03-21T08:18:25.862Z,102475.55
2019-03-21T08:20:58.582Z,102467.16
2019-03-21T08:23:24.415Z,102464.50
2019-03-21T08:26:12.074Z,102467.47
2019-03-21T08:28:40.485Z,102468.20
2019-03-21T08:31:48.808Z,102474.70
2019-03-21T08:34:17.216Z,102486.55
2019-03-21T08:37:04.747Z,102479.97
2019-03-21T08:39:33.163Z,102482.38
2019-03-21T08:45:08.154Z,102487.13
2019-03-21T08:47:55.815Z,102487.86
2019-03-21T08:50:24.231Z,102486.02
2019-03-21T08:52:52.638Z,102484.48
2019-03-21T08:55:21.054Z,102480.64
2019-03-21T08:58:01.491Z,102487.22
2019-03-21T09:00:42.162Z,102485.19
2019-03-21T09:03:10.570Z,102480.97
2019-03-21T09:05:38.990Z,102484.63
2019-03-21T09:10:55.151Z,102488.45
2019-03-21T09:13:23.563Z,102489.45
2019-03-21T09:15:51.979Z,102487.87
2019-03-21T09:18:20.387Z,102487.52
2019-03-21T09:20:48.798Z,102490.01
2019-03-21T09:23:17.201Z,102494.78
2019-03-21T09:28:38.719Z,102501.31
2019-03-21T09:31:26.243Z,102495.27
2019-03-21T09:33:54.652Z,102494.41
2019-03-21T09:36:23.075Z,102492.63
2019-03-21T09:38:51.483Z,102503.66
2019-03-21T09:41:19.896Z,102493.77
2019-03-21T09:46:35.794Z,102497.63
2019-03-21T09:52:12.229Z,102496.56
2019-03-21T09:54:59.753Z,102492.77
2019-03-21T09:57:28.166Z,102489.92
2019-03-21T09:59:56.589Z,102489.86
2019-03-21T10:02:25.002Z,102496.31
2019-03-21T10:05:12.652Z,102501.09
2019-03-21T10:07:41.069Z,102496.12
2019-03-21T10:10:49.393Z,102501.98
2019-03-21T10:13:17.814Z,102502.12
2019-03-21T10:16:05.343Z,102496.39
2019-03-21T10:18:33.750Z,102502.61
2019-03-21T10:21:21.418Z,102498.16
2019-03-21T10:24:09.115Z,102499.69
2019-03-21T10:26:37.530Z,102503.52
2019-03-21T10:29:45.844Z,102506.46
2019-03-21T10:32:14.801Z,102506.12
2019-03-21T10:34:44.391Z,102508.97
2019-03-21T10:37:32.055Z,102507.45
2019-03-21T10:40:19.706Z,102508.83
2019-03-21T10:43:07.369Z,102502.56
2019-03-21T10:45:55.095Z,102501.78
2019-03-21T10:48:42.752Z,102504.77
2019-03-21T10:53:58.686Z,102502.69
2019-03-21T10:56:46.351Z,102510.20
2019-03-21T11:02:21.333Z,102502.98
2019-03-21T11:05:08.982Z,102506.42
2019-03-21T11:07:56.511Z,102508.27
2019-03-21T11:10:24.914Z,102505.41
2019-03-21T11:12:53.332Z,102501.03
2019-03-21T11:15:40.869Z,102500.49
2019-03-21T11:18:09.294Z,102502.22
2019-03-21T11:21:17.608Z,102499.55
2019-03-21T11:23:46.029Z,102498.70
2019-03-21T11:26:33.546Z,102499.56
2019-03-21T11:29:21.208Z,102495.04
2019-03-21T11:34:23.448Z,102500.84
2019-03-21T11:39:45.739Z,102490.36
2019-03-21T11:44:48.190Z,102492.14
2019-03-21T11:47:41.638Z,102496.04
2019-03-21T11:50:45.899Z,102483.65
2019-03-21T11:55:48.208Z,102483.39
2019-03-21T11:58:17.790Z,102488.94
2019-03-21T12:01:05.996Z,102491.28
2019-03-21T12:03:53.527Z,102493.28
2019-03-21T12:06:21.934Z,102495.44
2019-03-21T12:08:50.352Z,102498.74
2019-03-21T12:11:21.185Z,102493.64
2019-03-21T12:13:48.898Z,102490.36
2019-03-21T12:16:17.301Z,102496.71
2019-03-21T12:19:05.001Z,102485.62
2019-03-21T12:21:52.661Z,102488.94
2019-03-21T12:24:40.410Z,102484.37
2019-03-21T12:27:08.848Z,102481.39
2019-03-21T12:29:56.526Z,102482.34
2019-03-21T12:32:24.956Z,102477.28
2019-03-21T12:34:53.413Z,102481.91
2019-03-21T12:40:49.216Z,102479.24
2019-03-21T12:43:36.792Z,102478.53
2019-03-21T12:46:45.114Z,102465.75
2019-03-21T12:51:47.639Z,102476.00
2019-03-21T12:54:16.072Z,102470.84
2019-03-21T12:57:03.627Z,102468.30
2019-03-21T12:59:32.072Z,102458.83
2019-03-21T13:02:00.487Z,102459.85
2019-03-21T13:04:28.927Z,102467.73
2019-03-21T13:10:42.541Z,102459.28
2019-03-21T13:13:30.239Z,102456.89
2019-03-21T13:16:17.896Z,102445.18
2019-03-21T13:21:39.616Z,102445.29
2019-03-21T13:24:08.034Z,102439.32
2019-03-21T13:26:55.565Z,102431.95
2019-03-21T13:29:25.193Z,102426.84
2019-03-21T13:31:54.102Z,102427.98
2019-03-21T13:34:41.763Z,102431.27
2019-03-21T13:37:10.172Z,102420.98
2019-03-21T13:39:38.587Z,102422.21
2019-03-21T13:44:54.649Z,102410.97
2019-03-21T13:48:02.982Z,102412.87
2019-03-21T13:50:31.480Z,102414.41
2019-03-21T13:53:19.321Z,102419.73
2019-03-21T13:55:47.781Z,102405.91
2019-03-21T13:58:16.301Z,102411.49
2019-03-21T14:01:04.089Z,102406.50
2019-03-21T14:03:51.670Z,102404.42
2019-03-21T14:06:20.110Z,102402.42
2019-03-21T14:11:41.412Z,102399.01
2019-03-21T14:16:43.670Z,102390.46
2019-03-21T14:19:31.357Z,102388.23
2019-03-21T14:21:59.762Z,102384.76
2019-03-21T14:24:28.198Z,102388.11
2019-03-21T14:27:15.959Z,102386.06
2019-03-21T14:30:03.640Z,102388.40
2019-03-21T14:32:32.066Z,102385.42
2019-03-21T14:35:00.511Z,102377.53
2019-03-21T14:37:28.953Z,102376.68
2019-03-21T14:40:16.794Z,102378.64
2019-03-21T14:42:45.300Z,102379.64
2019-03-21T14:45:53.682Z,102384.67
2019-03-21T14:51:28.684Z,102371.34
2019-03-21T14:54:16.375Z,102376.46
2019-03-21T14:56:44.792Z,102380.83
2019-03-21T14:59:32.456Z,102386.46
2019-03-21T15:02:07.689Z,102387.61
2019-03-21T15:04:36.106Z,102391.01
2019-03-21T15:07:23.698Z,102392.05
2019-03-21T15:09:52.138Z,102384.58
2019-03-21T15:12:39.652Z,102382.87
2019-03-21T15:15:48.279Z,102384.67
2019-03-21T15:18:16.691Z,102383.34
2019-03-21T15:21:04.352Z,102388.78
2019-03-21T15:26:39.327Z,102385.67
2019-03-21T15:29:07.739Z,102389.83
2019-03-21T15:31:55.485Z,102392.36
2019-03-21T15:34:23.900Z,102394.77
2019-03-21T15:36:52.311Z,102388.94
2019-03-21T15:39:39.835Z,102393.08
2019-03-21T15:42:08.252Z,102392.44
2019-03-21T15:44:36.659Z,102386.91
2019-03-21T15:47:44.987Z,102396.80
2019-03-21T15:51:03.925Z,102393.41
2019-03-21T15:53:23.446Z,102391.22
2019-03-21T15:55:51.855Z,102392.23
2019-03-21T15:58:32.545Z,102387.20
2019-03-21T16:01:20.219Z,102380.27
2019-03-21T16:03:48.626Z,102380.27
2019-03-21T16:11:25.961Z,102380.44
2019-03-21T16:14:13.503Z,102376.15
2019-03-21T16:17:01.186Z,102365.13
2019-03-21T16:19:48.874Z,102370.62
2019-03-21T16:22:36.463Z,102364.92
2019-03-21T16:25:44.821Z,102362.27
2019-03-21T16:31:00.686Z,102370.56
2019-03-21T16:33:48.384Z,102372.56
2019-03-21T16:36:35.939Z,102379.63
2019-03-21T16:39:44.353Z,102369.02
2019-03-21T16:42:32.031Z,102374.91
2019-03-21T16:45:21.270Z,102362.70
2019-03-21T16:47:49.841Z,102361.63
2019-03-21T16:50:37.421Z,102360.98
2019-03-21T16:53:05.855Z,102362.77
2019-03-21T16:55:34.274Z,102363.77
2019-03-21T16:58:02.705Z,102361.70
2019-03-21T17:00:50.469Z,102356.09
2019-03-21T17:03:38.231Z,102347.72
2019-03-21T17:06:25.808Z,102358.80
2019-03-21T17:09:13.483Z,102359.46
2019-03-21T17:11:41.928Z,102360.06
2019-03-21T17:14:10.346Z,102361.64
2019-03-21T17:16:38.800Z,102359.89
2019-03-21T17:19:26.331Z,102357.78
2019-03-21T17:21:54.791Z,102359.67
2019-03-21T17:24:42.437Z,102355.02
2019-03-21T17:27:10.901Z,102357.30
2019-03-21T17:32:45.925Z,102348.59
2019-03-21T17:35:33.467Z,102346.47
2019-03-21T17:38:01.911Z,102350.59
2019-03-21T17:40:49.682Z,102349.38
2019-03-21T17:43:18.117Z,102351.60
2019-03-21T17:45:46.548Z,102354.51
2019-03-21T17:48:14.994Z,102356.41
2019-03-21T17:50:43.417Z,102355.59
2019-03-21T17:53:30.948Z,102352.33
2019-03-21T17:55:59.370Z,102359.73
2019-03-21T17:58:28.797Z,102370.98
2019-03-21T18:00:57.936Z,102368.70
2019-03-21T18:03:26.351Z,102375.06
2019-03-21T18:09:01.322Z,102374.68
2019-03-21T18:11:49.252Z,102379.96
2019-03-21T18:14:17.696Z,102366.78
2019-03-21T18:17:05.231Z,102379.75
2019-03-21T18:19:52.879Z,102376.30
2019-03-21T18:22:40.419Z,102375.77
2019-03-21T18:25:08.826Z,102372.78
2019-03-21T18:27:56.383Z,102365.84
2019-03-21T18:30:44.066Z,102378.11
2019-03-21T18:33:31.730Z,102386.23
2019-03-21T18:36:00.172Z,102380.64
2019-03-21T18:41:02.779Z,102385.02
2019-03-21T18:43:31.342Z,102387.28
2019-03-21T18:45:59.774Z,102388.34
2019-03-21T18:48:28.237Z,102389.77
2019-03-21T18:51:15.799Z,102387.48
2019-03-21T18:53:44.214Z,102386.78
2019-03-21T18:56:12.671Z,102380.41
2019-03-21T18:58:41.289Z,102381.91
2019-03-21T19:01:09.797Z,102385.52
2019-03-21T19:03:38.273Z,102381.41
2019-03-21T19:06:06.767Z,102377.78
2019-03-21T19:08:54.539Z,102379.43
2019-03-21T19:11:23.017Z,102383.07
2019-03-21T19:14:10.662Z,102386.11
2019-03-21T19:19:26.595Z,102386.93
2019-03-21T19:22:14.491Z,102382.29
2019-03-21T19:25:02.124Z,102382.81
2019-03-21T19:27:30.635Z,102389.06
2019-03-21T19:35:41.335Z,102380.82
2019-03-21T19:38:09.803Z,102383.19
2019-03-21T19:40:57.507Z,102385.50
2019-03-21T19:43:26.034Z,102391.52
2019-03-21T19:45:54.505Z,102388.80
2019-03-21T19:48:23.049Z,102392.36
2019-03-21T19:50:51.481Z,102391.05
2019-03-21T19:53:19.980Z,102388.00
2019-03-21T19:56:08.674Z,102386.81
2019-03-21T19:58:37.828Z,102384.03
2019-03-21T20:01:06.274Z,102387.62
2019-03-21T20:03:34.778Z,102385.78
2019-03-21T20:06:22.525Z,102384.76
2019-03-21T20:08:50.943Z,102382.97
2019-03-21T20:11:38.688Z,102381.92
2019-03-21T20:14:26.425Z,102386.66
2019-03-21T20:17:13.951Z,102388.55
2019-03-21T20:22:36.095Z,102392.08
2019-03-21T20:25:44.594Z,102394.26
2019-03-21T20:28:13.011Z,102390.06
2019-03-21T20:31:00.672Z,102391.70
2019-03-21T20:36:03.775Z,102396.09
2019-03-21T20:38:32.315Z,102402.01
2019-03-21T20:41:00.735Z,102401.89
2019-03-21T20:43:29.215Z,102394.00
2019-03-21T20:45:57.724Z,102398.78
2019-03-21T20:48:44.895Z,102401.65
2019-03-21T20:51:32.651Z,102399.37
2019-03-21T20:56:35.462Z,102404.97
2019-03-21T20:59:03.944Z,102403.55
2019-03-21T21:01:32.492Z,102401.31
2019-03-21T21:04:00.942Z,102403.66
2019-03-21T21:06:48.525Z,102403.05
2019-03-21T21:11:50.730Z,102412.59
2019-03-21T21:14:38.305Z,102415.23
2019-03-21T21:17:06.722Z,102416.52
2019-03-21T21:19:35.183Z,102424.84
2019-03-21T21:25:51.621Z,102418.38
2019-03-21T21:28:20.062Z,102427.78
2019-03-21T21:30:48.532Z,102428.60
2019-03-21T21:33:16.958Z,102429.56
2019-03-21T21:36:04.728Z,102432.28
2019-03-21T21:38:33.192Z,102437.45
2019-03-21T21:41:01.656Z,102435.56
2019-03-21T21:43:49.459Z,102430.25
2019-03-21T21:46:17.887Z,102421.64
2019-03-21T21:48:46.359Z,102419.08
2019-03-21T21:51:14.793Z,102417.18
2019-03-21T21:53:43.238Z,102419.03
2019-03-21T21:56:17.486Z,102425.78
2019-03-21T21:58:41.936Z,102415.39
2019-03-21T22:01:29.561Z,102415.29
2019-03-21T22:06:45.430Z,102409.46
2019-03-21T22:09:13.987Z,102408.75
2019-03-21T22:12:01.489Z,102407.72
2019-03-21T22:14:49.199Z,102406.15
2019-03-21T22:20:44.999Z,102410.22
2019-03-21T22:23:32.680Z,102409.41
2019-03-21T22:26:01.201Z,102402.66
2019-03-21T22:28:29.686Z,102400.16
2019-03-21T22:33:31.811Z,102397.62
2019-03-21T22:36:00.277Z,102400.51
2019-03-21T22:38:47.956Z,102397.61
2019-03-21T22:43:43.793Z,102395.27
2019-03-21T22:46:31.527Z,102399.22
2019-03-21T22:48:59.945Z,102407.84
2019-03-21T22:51:28.376Z,102408.34
2019-03-21T22:54:16.042Z,102397.86
2019-03-21T22:56:44.490Z,102407.13
2019-03-21T23:04:39.187Z,102392.66
2019-03-21T23:07:07.639Z,102389.95
2019-03-21T23:09:36.133Z,102390.55
2019-03-21T23:12:23.824Z,102388.57
2019-03-21T23:17:58.839Z,102386.99
2019-03-21T23:20:27.311Z,102384.09
2019-03-21T23:26:02.427Z,102391.02
2019-03-21T23:28:50.075Z,102392.27
2019-03-21T23:33:52.063Z,102386.00
2019-03-21T23:36:39.752Z,102384.08
2019-03-21T23:39:48.120Z,102378.94
2019-03-21T23:42:16.541Z,102382.75
2019-03-21T23:44:44.978Z,102391.58
2019-03-21T23:47:32.649Z,102387.47
2019-03-21T23:50:20.179Z,102385.20
2019-03-21T23:57:57.021Z,102387.02
